Terminal Aerodrome Forecast
Issued by NWS

Home | Current Version | Previous Version | Text Only | Print | Product List | Glossary On
Versions: 1 2 3 4 5 6 7 8 9 10 11 12 13 14 15 16 17 18 19 20 21 22 23 24 25
650
FTUS44 KOUN 240528
TAFGAG
TAF
KGAG 240528Z 2406/2506 15017G25KT P6SM BKN015 OVC150
     FM240800 17015KT P6SM OVC010
     FM241400 20017G27KT P6SM SCT020 PROB30 2421/2501 3SM TSRA BR
      BKN030CB BKN100
     FM250100 16016G25KT P6SM BKN020 BKN250=

USA.gov is the U.S. government's official web portal to all federal, state and local government web resources and services.